Time,TemperatureF,DewpointF,PressureIn,WindDirection,WindDirectionDegrees,WindSpeedMPH,WindSpeedGustMPH,Humidity,HourlyPrecipIn,Conditions,Clouds,dailyrainin,SoftwareType,DateUTC
2013-07-16 00:00:00,64.4,63.2,29.95,South,172,0.0,0.0,96,0.00,,,0.00,Wunderground v.1.15,2013-07-16 04:00:00,
2013-07-16 00:10:00,64.6,63.4,29.95,South,172,0.0,0.0,96,0.00,,,0.00,Wunderground v.1.15,2013-07-16 04:10:00,
2013-07-16 00:20:00,64.9,63.7,29.95,South,172,0.0,0.0,96,0.00,,,0.00,Wunderground v.1.15,2013-07-16 04:20:00,
2013-07-16 00:30:00,64.9,63.7,29.96,South,172,0.0,0.0,96,0.00,,,0.00,Wunderground v.1.15,2013-07-16 04:30:00,
2013-07-16 00:40:00,65.1,64.2,29.96,South,172,0.0,0.0,97,0.00,,,0.00,Wunderground v.1.15,2013-07-16 04:40:00,
2013-07-16 00:50:00,64.7,63.5,29.96,South,172,0.0,0.0,96,0.00,,,0.00,Wunderground v.1.15,2013-07-16 04:50:00,
2013-07-16 01:00:00,64.6,63.4,29.96,South,172,0.0,0.0,96,0.00,,,0.00,Wunderground v.1.15,2013-07-16 05:00:00,
2013-07-16 01:10:00,64.1,62.9,29.96,South,172,0.0,0.0,96,0.00,,,0.00,Wunderground v.1.15,2013-07-16 05:10:00,
2013-07-16 01:20:00,63.8,62.9,29.96,South,172,0.0,0.0,97,0.00,,,0.00,Wunderground v.1.15,2013-07-16 05:20:00,
2013-07-16 01:30:00,63.6,62.7,29.96,South,172,0.0,0.0,97,0.00,,,0.00,Wunderground v.1.15,2013-07-16 05:30:00,
2013-07-16 01:40:00,63.6,62.7,29.95,South,172,0.0,0.0,97,0.00,,,0.00,Wunderground v.1.15,2013-07-16 05:40:00,
2013-07-16 01:50:00,63.6,62.7,29.96,South,172,0.0,0.0,97,0.00,,,0.00,Wunderground v.1.15,2013-07-16 05:50:00,
2013-07-16 02:00:00,63.5,62.6,29.96,South,172,0.0,0.0,97,0.00,,,0.00,Wunderground v.1.15,2013-07-16 06:00:00,
2013-07-16 02:10:00,63.3,62.4,29.95,South,172,0.0,0.0,97,0.00,,,0.00,Wunderground v.1.15,2013-07-16 06:10:00,
2013-07-16 02:20:00,63.1,62.2,29.95,South,172,0.0,0.0,97,0.00,,,0.00,Wunderground v.1.15,2013-07-16 06:20:00,
2013-07-16 02:30:00,62.8,61.9,29.95,South,172,0.0,0.0,97,0.00,,,0.00,Wunderground v.1.15,2013-07-16 06:30:00,
2013-07-16 02:40:00,62.9,62.0,29.95,South,172,0.0,0.0,97,0.00,,,0.00,Wunderground v.1.15,2013-07-16 06:40:00,
2013-07-16 02:50:00,62.7,61.8,29.95,South,172,0.0,0.0,97,0.00,,,0.00,Wunderground v.1.15,2013-07-16 06:50:00,
2013-07-16 03:00:00,62.7,62.1,29.95,South,172,0.0,0.0,98,0.00,,,0.00,Wunderground v.1.15,2013-07-16 07:00:00,
2013-07-16 03:10:00,62.3,61.4,29.95,South,172,0.0,0.0,97,0.00,,,0.00,Wunderground v.1.15,2013-07-16 07:10:00,
2013-07-16 03:20:00,62.2,61.6,29.95,South,172,0.0,0.0,98,0.00,,,0.00,Wunderground v.1.15,2013-07-16 07:20:00,
2013-07-16 03:30:00,62.5,61.9,29.95,South,172,0.0,0.0,98,0.00,,,0.00,Wunderground v.1.15,2013-07-16 07:30:00,
2013-07-16 03:40:00,62.5,61.9,29.95,South,172,0.0,0.0,98,0.00,,,0.00,Wunderground v.1.15,2013-07-16 07:40:00,
2013-07-16 03:50:00,61.9,61.0,29.94,South,172,0.0,0.0,97,0.00,,,0.00,Wunderground v.1.15,2013-07-16 07:50:00,
2013-07-16 04:00:00,61.8,60.9,29.94,South,172,0.0,0.0,97,0.00,,,0.00,Wunderground v.1.15,2013-07-16 08:00:00,
2013-07-16 04:10:00,62.2,61.6,29.94,South,172,0.0,0.0,98,0.00,,,0.00,Wunderground v.1.15,2013-07-16 08:10:00,
2013-07-16 04:20:00,62.2,61.6,29.94,South,173,0.0,0.0,98,0.00,,,0.00,Wunderground v.1.15,2013-07-16 08:20:00,
2013-07-16 04:30:00,62.0,61.4,29.94,South,173,0.0,0.0,98,0.00,,,0.00,Wunderground v.1.15,2013-07-16 08:30:00,
2013-07-16 04:40:00,61.3,60.4,29.93,South,173,0.0,0.0,97,0.00,,,0.00,Wunderground v.1.15,2013-07-16 08:40:00,
2013-07-16 04:50:00,61.1,60.5,29.94,South,173,0.0,0.0,98,0.00,,,0.00,Wunderground v.1.15,2013-07-16 08:50:00,
2013-07-16 05:00:00,61.6,61.0,29.93,South,173,0.0,0.0,98,0.00,,,0.00,Wunderground v.1.15,2013-07-16 09:00:00,
2013-07-16 05:10:00,62.0,61.4,29.94,South,173,0.0,0.0,98,0.00,,,0.00,Wunderground v.1.15,2013-07-16 09:10:00,
2013-07-16 05:20:00,61.9,61.3,29.94,South,173,0.0,0.0,98,0.00,,,0.00,Wunderground v.1.15,2013-07-16 09:20:00,
2013-07-16 05:30:00,61.8,61.2,29.94,South,173,0.0,0.0,98,0.00,,,0.00,Wunderground v.1.15,2013-07-16 09:30:00,
2013-07-16 05:40:00,61.6,61.0,29.94,South,173,0.0,0.0,98,0.00,,,0.00,Wunderground v.1.15,2013-07-16 09:40:00,
2013-07-16 05:50:00,61.6,61.0,29.94,South,173,0.0,2.0,98,0.00,,,0.00,Wunderground v.1.15,2013-07-16 09:50:00,
2013-07-16 06:00:00,61.6,61.0,29.95,South,173,0.0,0.0,98,0.00,,,0.01,Wunderground v.1.15,2013-07-16 10:00:00,
2013-07-16 06:10:00,61.4,60.8,29.95,South,173,0.0,0.0,98,0.00,,,0.01,Wunderground v.1.15,2013-07-16 10:10:00,
2013-07-16 06:20:00,60.9,60.3,29.95,South,175,0.0,0.0,98,0.00,,,0.01,Wunderground v.1.15,2013-07-16 10:20:00,
2013-07-16 06:30:00,61.1,60.5,29.95,West,263,1.0,1.0,98,0.00,,,0.01,Wunderground v.1.15,2013-07-16 10:30:00,
2013-07-16 06:40:00,60.8,60.2,29.95,West,281,1.0,1.0,98,0.00,,,0.01,Wunderground v.1.15,2013-07-16 10:40:00,
2013-07-16 06:50:00,60.7,60.1,29.96,West,281,0.0,0.0,98,0.00,,,0.01,Wunderground v.1.15,2013-07-16 10:50:00,
2013-07-16 07:00:00,61.3,60.7,29.96,West,281,0.0,0.0,98,0.00,,,0.01,Wunderground v.1.15,2013-07-16 11:00:00,
2013-07-16 07:10:00,61.5,60.9,29.96,WNW,282,0.0,0.0,98,0.00,,,0.01,Wunderground v.1.15,2013-07-16 11:10:00,
2013-07-16 07:20:00,62.0,61.4,29.96,West,281,0.0,0.0,98,0.00,,,0.01,Wunderground v.1.15,2013-07-16 11:20:00,
2013-07-16 07:30:00,62.7,62.1,29.96,West,281,0.0,0.0,98,0.00,,,0.01,Wunderground v.1.15,2013-07-16 11:30:00,
2013-07-16 07:40:00,62.9,62.3,29.96,West,281,0.0,0.0,98,0.00,,,0.01,Wunderground v.1.15,2013-07-16 11:40:00,
2013-07-16 07:50:00,63.6,63.0,29.96,WNW,282,0.0,0.0,98,0.00,,,0.01,Wunderground v.1.15,2013-07-16 11:50:00,
2013-07-16 08:00:00,64.4,63.8,29.97,West,281,0.0,0.0,98,0.00,,,0.01,Wunderground v.1.15,2013-07-16 12:00:00,
2013-07-16 08:10:00,65.2,64.6,29.97,West,281,0.0,0.0,98,0.00,,,0.01,Wunderground v.1.15,2013-07-16 12:10:00,
2013-07-16 08:20:00,65.8,65.2,29.97,West,281,0.0,0.0,98,0.00,,,0.01,Wunderground v.1.15,2013-07-16 12:20:00,
2013-07-16 08:30:00,67.1,66.2,29.97,West,281,0.0,0.0,97,0.00,,,0.01,Wunderground v.1.15,2013-07-16 12:30:00,
2013-07-16 08:40:00,68.2,67.0,29.97,West,281,0.0,0.0,96,0.00,,,0.01,Wunderground v.1.15,2013-07-16 12:40:00,
2013-07-16 08:50:00,69.0,66.9,29.98,WNW,286,1.0,2.0,93,0.00,,,0.01,Wunderground v.1.15,2013-07-16 12:50:00,
2013-07-16 09:00:00,70.2,67.1,29.98,WNW,294,2.0,2.0,90,0.00,,,0.01,Wunderground v.1.15,2013-07-16 13:00:00,
2013-07-16 09:10:00,71.0,66.9,29.98,WNW,294,0.0,3.0,87,0.00,,,0.01,Wunderground v.1.15,2013-07-16 13:10:00,
2013-07-16 09:20:00,71.9,67.5,29.98,WNW,299,1.0,3.0,86,0.00,,,0.01,Wunderground v.1.15,2013-07-16 13:20:00,
2013-07-16 09:30:00,72.7,67.2,29.98,WNW,300,2.0,2.0,83,0.00,,,0.01,Wunderground v.1.15,2013-07-16 13:30:00,
2013-07-16 09:40:00,73.4,67.9,29.98,NW,306,2.0,3.0,83,0.00,,,0.01,Wunderground v.1.15,2013-07-16 13:40:00,
2013-07-16 09:50:00,73.8,68.3,29.98,NW,326,2.0,5.0,83,0.00,,,0.01,Wunderground v.1.15,2013-07-16 13:50:00,
2013-07-16 10:00:00,73.9,68.1,29.97,NNW,334,3.0,4.0,82,0.00,,,0.01,Wunderground v.1.15,2013-07-16 14:00:00,
2013-07-16 10:10:00,74.5,68.6,29.97,NW,324,3.0,3.0,82,0.00,,,0.01,Wunderground v.1.15,2013-07-16 14:10:00,
2013-07-16 10:20:00,75.1,68.9,29.97,NNW,346,2.0,2.0,81,0.00,,,0.01,Wunderground v.1.15,2013-07-16 14:20:00,
2013-07-16 10:30:00,75.7,68.4,29.97,North,9,4.0,4.0,78,0.00,,,0.01,Wunderground v.1.15,2013-07-16 14:30:00,
2013-07-16 10:40:00,76.0,67.9,29.96,North,360,2.0,2.0,76,0.00,,,0.01,Wunderground v.1.15,2013-07-16 14:40:00,
2013-07-16 10:50:00,76.3,68.6,29.96,North,11,3.0,3.0,77,0.00,,,0.01,Wunderground v.1.15,2013-07-16 14:50:00,
2013-07-16 11:00:00,76.8,68.3,29.96,NW,317,3.0,6.0,75,0.00,,,0.01,Wunderground v.1.15,2013-07-16 15:00:00,
2013-07-16 11:10:00,77.2,70.2,29.96,NNW,327,3.0,3.0,79,0.00,,,0.01,Wunderground v.1.15,2013-07-16 15:10:00,
2013-07-16 11:20:00,78.0,70.6,29.96,North,11,4.0,4.0,78,0.00,,,0.01,Wunderground v.1.15,2013-07-16 15:20:00,
2013-07-16 11:30:00,78.1,69.5,29.96,NE,49,3.0,3.0,75,0.00,,,0.01,Wunderground v.1.15,2013-07-16 15:30:00,
2013-07-16 11:40:00,78.2,69.6,29.96,NNE,16,2.0,2.0,75,0.00,,,0.01,Wunderground v.1.15,2013-07-16 15:40:00,
2013-07-16 11:50:00,78.9,69.9,29.96,NNE,24,2.0,2.0,74,0.00,,,0.01,Wunderground v.1.15,2013-07-16 15:50:00,
2013-07-16 12:00:00,78.8,69.4,29.96,NNE,26,5.0,5.0,73,0.00,,,0.01,Wunderground v.1.15,2013-07-16 16:00:00,
2013-07-16 12:10:00,79.5,70.5,29.96,NNE,18,2.0,2.0,74,0.00,,,0.01,Wunderground v.1.15,2013-07-16 16:10:00,
2013-07-16 12:20:00,79.8,69.6,29.96,NNE,12,2.0,2.0,71,0.00,,,0.01,Wunderground v.1.15,2013-07-16 16:20:00,
2013-07-16 12:30:00,79.8,68.7,29.95,NNE,14,3.0,4.0,69,0.00,,,0.01,Wunderground v.1.15,2013-07-16 16:30:00,
2013-07-16 12:40:00,79.6,69.0,29.95,NNE,30,3.0,3.0,70,0.00,,,0.01,Wunderground v.1.15,2013-07-16 16:40:00,
2013-07-16 12:50:00,80.2,70.4,29.95,North,350,1.0,1.0,72,0.00,,,0.01,Wunderground v.1.15,2013-07-16 16:50:00,
2013-07-16 13:00:00,80.5,69.0,29.95,North,5,1.0,1.0,68,0.00,,,0.01,Wunderground v.1.15,2013-07-16 17:00:00,
2013-07-16 13:10:00,79.8,69.6,29.95,NE,38,1.0,13.0,71,0.00,,,0.01,Wunderground v.1.15,2013-07-16 17:10:00,
2013-07-16 13:20:00,80.4,68.0,29.94,North,9,4.0,4.0,66,0.00,,,0.01,Wunderground v.1.15,2013-07-16 17:20:00,
2013-07-16 13:30:00,80.7,68.7,29.94,NE,53,2.0,13.0,67,0.00,,,0.01,Wunderground v.1.15,2013-07-16 17:30:00,
2013-07-16 13:40:00,81.2,69.2,29.93,NW,317,1.0,1.0,67,0.00,,,0.01,Wunderground v.1.15,2013-07-16 17:40:00,
2013-07-16 13:50:00,81.9,71.6,29.93,NNW,333,1.0,13.0,71,0.00,,,0.01,Wunderground v.1.15,2013-07-16 17:50:00,
2013-07-16 14:00:00,81.7,68.3,29.93,NW,317,1.0,1.0,64,0.00,,,0.01,Wunderground v.1.15,2013-07-16 18:00:00,
2013-07-16 14:10:00,81.7,68.3,29.92,NNW,348,1.0,1.0,64,0.00,,,0.01,Wunderground v.1.15,2013-07-16 18:10:00,
2013-07-16 14:20:00,83.0,69.1,29.92,NW,318,1.0,13.0,63,0.00,,,0.01,Wunderground v.1.15,2013-07-16 18:20:00,
2013-07-16 14:30:00,83.5,69.6,29.92,NW,314,1.0,1.0,63,0.00,,,0.01,Wunderground v.1.15,2013-07-16 18:30:00,
2013-07-16 14:40:00,83.2,67.9,29.92,ENE,58,1.0,1.0,60,0.00,,,0.01,Wunderground v.1.15,2013-07-16 18:40:00,
2013-07-16 14:50:00,83.0,67.2,29.91,NNE,24,1.0,1.0,59,0.00,,,0.01,Wunderground v.1.15,2013-07-16 18:50:00,
2013-07-16 15:00:00,82.9,65.6,29.91,NE,38,1.0,13.0,56,0.00,,,0.01,Wunderground v.1.15,2013-07-16 19:00:00,
2013-07-16 15:10:00,83.4,65.0,29.91,NW,319,0.0,0.0,54,0.00,,,0.01,Wunderground v.1.15,2013-07-16 19:10:00,
2013-07-16 15:20:00,83.8,67.4,29.91,NW,315,0.0,0.0,58,0.00,,,0.01,Wunderground v.1.15,2013-07-16 19:20:00,
2013-07-16 15:30:00,83.2,64.8,29.91,NNE,28,3.0,6.0,54,0.00,,,0.01,Wunderground v.1.15,2013-07-16 19:30:00,
2013-07-16 15:40:00,82.9,67.1,29.91,NE,44,3.0,3.0,59,0.00,,,0.01,Wunderground v.1.15,2013-07-16 19:40:00,
2013-07-16 15:50:00,82.9,69.9,29.90,NNE,22,3.0,3.0,65,0.00,,,0.01,Wunderground v.1.15,2013-07-16 19:50:00,
2013-07-16 16:00:00,82.9,68.5,29.90,NE,39,4.0,4.0,62,0.00,,,0.01,Wunderground v.1.15,2013-07-16 20:00:00,
2013-07-16 16:10:00,83.6,68.2,29.90,NNW,331,1.0,1.0,60,0.00,,,0.01,Wunderground v.1.15,2013-07-16 20:10:00,
2013-07-16 16:20:00,83.1,67.3,29.89,NE,41,3.0,3.0,59,0.00,,,0.01,Wunderground v.1.15,2013-07-16 20:20:00,
2013-07-16 16:30:00,83.0,67.7,29.89,NNE,30,3.0,3.0,60,0.00,,,0.01,Wunderground v.1.15,2013-07-16 20:30:00,
2013-07-16 16:40:00,83.6,66.2,29.89,NNE,17,1.0,1.0,56,0.00,,,0.01,Wunderground v.1.15,2013-07-16 20:40:00,
2013-07-16 16:50:00,85.1,67.6,29.89,NW,325,1.0,1.0,56,0.00,,,0.01,Wunderground v.1.15,2013-07-16 20:50:00,
2013-07-16 17:00:00,85.1,68.7,29.89,NNE,13,1.0,1.0,58,0.00,,,0.01,Wunderground v.1.15,2013-07-16 21:00:00,
2013-07-16 17:10:00,83.2,67.4,29.89,NNE,22,0.0,11.0,59,0.00,,,0.01,Wunderground v.1.15,2013-07-16 21:10:00,
2013-07-16 17:20:00,82.8,67.0,29.89,NNE,30,0.0,11.0,59,0.00,,,0.01,Wunderground v.1.15,2013-07-16 21:20:00,
2013-07-16 17:30:00,82.3,68.0,29.89,NNE,30,0.0,11.0,62,0.00,,,0.01,Wunderground v.1.15,2013-07-16 21:30:00,
2013-07-16 17:40:00,81.0,68.6,29.89,ENE,61,1.0,1.0,66,0.00,,,0.01,Wunderground v.1.15,2013-07-16 21:40:00,
2013-07-16 17:50:00,80.7,68.7,29.89,ENE,62,0.0,11.0,67,0.00,,,0.01,Wunderground v.1.15,2013-07-16 21:50:00,
2013-07-16 18:00:00,80.9,69.3,29.89,ENE,63,0.0,11.0,68,0.00,,,0.01,Wunderground v.1.15,2013-07-16 22:00:00,
2013-07-16 18:10:00,78.7,70.5,29.89,ENE,72,7.0,7.0,76,0.00,,,0.01,Wunderground v.1.15,2013-07-16 22:10:00,
2013-07-16 18:20:00,77.9,70.5,29.88,East,82,5.0,5.0,78,0.00,,,0.01,Wunderground v.1.15,2013-07-16 22:20:00,
2013-07-16 18:30:00,78.2,71.2,29.88,East,92,4.0,4.0,79,0.00,,,0.01,Wunderground v.1.15,2013-07-16 22:30:00,
2013-07-16 18:40:00,78.5,70.3,29.88,East,86,4.0,4.0,76,0.00,,,0.01,Wunderground v.1.15,2013-07-16 22:40:00,
2013-07-16 18:50:00,78.7,71.3,29.88,East,88,2.0,2.0,78,0.00,,,0.01,Wunderground v.1.15,2013-07-16 22:50:00,
2013-07-16 19:00:00,78.2,71.5,29.89,East,86,2.0,11.0,80,0.00,,,0.01,Wunderground v.1.15,2013-07-16 23:00:00,
2013-07-16 19:10:00,77.0,71.8,29.89,East,86,3.0,3.0,84,0.00,,,0.01,Wunderground v.1.15,2013-07-16 23:10:00,
2013-07-16 19:20:00,76.6,71.7,29.90,East,87,0.0,11.0,85,0.00,,,0.01,Wunderground v.1.15,2013-07-16 23:20:00,
2013-07-16 19:30:00,76.4,71.9,29.90,East,87,0.0,11.0,86,0.00,,,0.01,Wunderground v.1.15,2013-07-16 23:30:00,
2013-07-16 19:40:00,76.2,71.7,29.90,East,86,0.0,11.0,86,0.00,,,0.01,Wunderground v.1.15,2013-07-16 23:40:00,
2013-07-16 19:50:00,76.3,71.8,29.89,East,86,0.0,11.0,86,0.00,,,0.01,Wunderground v.1.15,2013-07-16 23:50:00,
2013-07-16 20:00:00,76.2,72.0,29.88,East,86,0.0,0.0,87,0.00,,,0.01,Wunderground v.1.15,2013-07-17 00:00:00,
2013-07-16 20:10:00,76.1,71.9,29.89,East,86,0.0,0.0,87,0.00,,,0.01,Wunderground v.1.15,2013-07-17 00:10:00,
2013-07-16 20:20:00,75.5,71.7,29.89,East,86,0.0,0.0,88,0.00,,,0.01,Wunderground v.1.15,2013-07-17 00:20:00,
2013-07-16 20:30:00,75.2,71.4,29.89,East,86,0.0,0.0,88,0.00,,,0.01,Wunderground v.1.15,2013-07-17 00:30:00,
2013-07-16 20:40:00,75.3,71.2,29.90,East,86,0.0,0.0,87,0.00,,,0.01,Wunderground v.1.15,2013-07-17 00:40:00,
2013-07-16 20:50:00,75.6,71.5,29.90,East,86,0.0,0.0,87,0.00,,,0.01,Wunderground v.1.15,2013-07-17 00:50:00,
2013-07-16 21:00:00,75.3,71.2,29.91,East,87,1.0,4.0,87,0.00,,,0.01,Wunderground v.1.15,2013-07-17 01:00:00,
2013-07-16 21:10:00,74.8,71.0,29.91,West,267,3.0,3.0,88,0.00,,,0.01,Wunderground v.1.15,2013-07-17 01:10:00,
2013-07-16 21:20:00,74.5,70.7,29.91,West,267,0.0,0.0,88,0.00,,,0.01,Wunderground v.1.15,2013-07-17 01:20:00,
2013-07-16 21:30:00,74.1,70.6,29.91,West,267,0.0,0.0,89,0.00,,,0.01,Wunderground v.1.15,2013-07-17 01:30:00,
2013-07-16 21:40:00,73.6,70.2,29.92,West,267,0.0,0.0,89,0.00,,,0.01,Wunderground v.1.15,2013-07-17 01:40:00,
2013-07-16 21:50:00,73.0,69.9,29.91,West,267,0.0,0.0,90,0.00,,,0.01,Wunderground v.1.15,2013-07-17 01:50:00,
2013-07-16 22:00:00,72.5,69.4,29.91,West,267,0.0,0.0,90,0.00,,,0.01,Wunderground v.1.15,2013-07-17 02:00:00,
2013-07-16 22:10:00,72.4,69.3,29.91,West,267,0.0,0.0,90,0.00,,,0.01,Wunderground v.1.15,2013-07-17 02:10:00,
2013-07-16 22:20:00,72.4,69.3,29.91,West,268,0.0,0.0,90,0.00,,,0.01,Wunderground v.1.15,2013-07-17 02:20:00,
2013-07-16 22:30:00,72.1,69.0,29.90,NNW,336,0.0,0.0,90,0.00,,,0.01,Wunderground v.1.15,2013-07-17 02:30:00,
2013-07-16 22:40:00,72.1,69.0,29.90,NNW,336,0.0,0.0,90,0.00,,,0.01,Wunderground v.1.15,2013-07-17 02:40:00,
2013-07-16 22:50:00,72.1,69.0,29.90,NNW,336,0.0,0.0,90,0.00,,,0.01,Wunderground v.1.15,2013-07-17 02:50:00,
2013-07-16 23:00:00,71.7,68.9,29.90,NNW,336,0.0,0.0,91,0.00,,,0.01,Wunderground v.1.15,2013-07-17 03:00:00,
2013-07-16 23:10:00,71.3,68.5,29.90,NNW,336,0.0,0.0,91,0.00,,,0.01,Wunderground v.1.15,2013-07-17 03:10:00,
2013-07-16 23:20:00,71.0,68.2,29.90,NNW,336,0.0,0.0,91,0.00,,,0.01,Wunderground v.1.15,2013-07-17 03:20:00,
2013-07-16 23:30:00,70.7,68.3,29.90,NNW,336,0.0,0.0,92,0.00,,,0.01,Wunderground v.1.15,2013-07-17 03:30:00,
2013-07-16 23:40:00,70.3,67.9,29.90,NNW,336,0.0,0.0,92,0.00,,,0.01,Wunderground v.1.15,2013-07-17 03:40:00,
2013-07-16 23:50:00,69.8,67.7,29.90,NNW,336,0.0,0.0,93,0.00,,,0.01,Wunderground v.1.15,2013-07-17 03:50:00,